Wheeling Ohio County Airport Wheeling US
ICAO: KHLG
IATA: HLG
Category: Medium
Scheduled Services: No

Elevation: 1195 ft
TransAlt. 18000 ft.

Airport Communications:
PITTSBURG APP/DEP:118.65
ASOS:127.375
CTAF:118.1
GND:121.75
ELKINS RDO:118.65
TWR:118.1
UNICOM:122.95

KHLG Zoom In..

If you have problems with the map follow the link
https://www.worldairports.se/pages/airport.php?
ICAO=KHLG

Runways:

(A) RW 03 length 5002 ft width 150 ft
ILS 109.70 / hdg 33

(B) RW 16 length 4499 ft width 150 ft
---- / hdg 158

(C) RW 21 length 5002 ft width 150 ft
---- / hdg 213

(D) RW 34 length 4499 ft width 150 ft
---- / hdg 338

Location; KHLG
Day. 22 / Time. 09.53 Zulu
* Altimeter: 30.40
* Temperature: -09° c. -15.8°f.
* Wind from: 000° Speed 00 kn.
Dewpoint: -13° c.
Visibility: 10 Statute Miles.
Clouds: Clear (automated report).

KHLG 220953Z AUTO 00000KT 10SM CLR M09/M13 A3040 RMK AO2 SLP318 T10891128


Wind - Calm.

 
 
jpsmedia worldairports.se 2020   terms of use